Time;durP1;ratioP1;P1;durP2;ratioP2;P2;SDS_P1;SDS_P2;PMS_P1;PMS_P2;Temp;Humidity;BMP_temperature;BMP_pressure;BME280_temperature;BME280_humidity;BME280_pressure;Samples;Min_cycle;Max_cycle;Signal;HPM_P1;HPM_P2
2022/06/19 00:01:42;;;;;;;2.95;1.52;;;21.80;97.40;;;;;;5034789;28;20649;-82
2022/06/19 00:04:08;;;;;;;1.65;1.35;;;21.80;97.60;;;;;;5034985;28;20179;-81
2022/06/19 00:06:35;;;;;;;1.77;1.13;;;21.70;97.50;;;;;;5036489;28;20174;-82
2022/06/19 00:09:03;;;;;;;2.33;1.33;;;21.70;97.60;;;;;;5036513;28;20189;-82
2022/06/19 00:11:29;;;;;;;4.10;1.15;;;21.70;97.60;;;;;;5034990;28;20618;-82
2022/06/19 00:13:55;;;;;;;2.88;1.30;;;21.70;97.50;;;;;;5036294;28;20197;-82
2022/06/19 00:16:21;;;;;;;4.45;1.20;;;21.70;97.70;;;;;;5034783;28;20182;-82
2022/06/19 00:18:46;;;;;;;6.53;1.40;;;21.70;97.80;;;;;;5034798;28;20224;-82
2022/06/19 00:21:15;;;;;;;3.20;1.10;;;21.60;97.60;;;;;;5429902;23;20235;-78
2022/06/19 00:23:41;;;;;;;6.63;1.13;;;21.60;97.80;;;;;;4976916;28;20184;-78
2022/06/19 00:26:07;;;;;;;2.58;1.23;;;21.60;97.90;;;;;;4977023;28;20227;-78
2022/06/19 00:28:33;;;;;;;3.42;1.33;;;21.60;98.00;;;;;;4992286;28;20184;-78
2022/06/19 00:30:59;;;;;;;3.28;1.30;;;21.50;97.90;;;;;;4994344;28;20187;-78
2022/06/19 00:33:24;;;;;;;3.85;1.60;;;21.50;98.10;;;;;;4996547;28;20184;-78
2022/06/19 00:35:50;;;;;;;2.58;1.50;;;21.60;98.10;;;;;;4996664;28;20618;-79
2022/06/19 00:38:16;;;;;;;8.70;3.10;;;21.50;97.90;;;;;;4996582;28;20187;-78
2022/06/19 00:40:41;;;;;;;3.33;2.20;;;21.50;98.20;;;;;;4996448;28;20219;-79
2022/06/19 00:43:07;;;;;;;3.25;1.20;;;21.50;98.20;;;;;;4996430;28;20214;-79
2022/06/19 00:45:42;;;;;;;3.72;1.30;;;21.40;98.30;;;;;;4996450;28;20510;-78
2022/06/19 00:48:17;;;;;;;4.57;1.50;;;21.30;98.70;;;;;;4996505;28;20176;-79
2022/06/19 00:50:46;;;;;;;5.38;1.45;;;21.20;99.00;;;;;;4995131;28;20179;-78
2022/06/19 00:53:18;;;;;;;1.92;1.23;;;21.10;99.20;;;;;;4996418;28;20176;-79
2022/06/19 00:55:46;;;;;;;1.67;1.10;;;21.10;99.20;;;;;;4996185;28;20160;-79
2022/06/19 00:58:34;;;;;;;7.88;1.40;;;21.00;99.70;;;;;;4996195;28;20233;-79
2022/06/19 01:01:04;;;;;;;1.40;1.30;;;20.90;99.90;;;;;;4996161;28;20342;-79
2022/06/19 01:03:52;;;;;;;4.38;1.50;;;20.90;99.90;;;;;;4995981;28;20164;-78
2022/06/19 01:06:19;;;;;;;5.40;1.40;;;20.90;99.90;;;;;;4996060;28;20172;-79
2022/06/19 01:08:47;;;;;;;4.03;1.70;;;20.90;99.90;;;;;;4995982;28;20176;-79
2022/06/19 01:11:18;;;;;;;3.45;1.67;;;20.80;99.90;;;;;;4996031;28;20175;-79
2022/06/19 01:13:44;;;;;;;2.08;1.20;;;20.80;99.90;;;;;;4995866;28;20182;-78
2022/06/19 01:16:10;;;;;;;2.03;1.30;;;20.80;99.90;;;;;;4995811;28;20171;-78
2022/06/19 01:18:38;;;;;;;4.15;1.60;;;20.80;99.90;;;;;;4995853;28;20175;-78
2022/06/19 01:21:10;;;;;;;3.97;1.50;;;20.80;99.90;;;;;;4995459;28;20343;-78
2022/06/19 01:24:16;;;;;;;1.80;1.50;;;20.80;99.90;;;;;;4995583;28;20622;-78
2022/06/19 01:26:46;;;;;;;2.20;1.23;;;20.80;99.90;;;;;;4995623;28;20180;-78
2022/06/19 01:29:14;;;;;;;3.90;1.58;;;20.70;99.90;;;;;;4994489;28;20628;-78
2022/06/19 01:31:45;;;;;;;1.75;1.35;;;20.70;99.90;;;;;;4995640;28;20180;-78
2022/06/19 01:34:35;;;;;;;2.15;1.30;;;20.70;99.90;;;;;;4995364;28;20160;-79
2022/06/19 01:37:08;;;;;;;3.63;1.20;;;20.70;99.90;;;;;;4995380;28;20164;-78
2022/06/19 01:39:54;;;;;;;2.95;1.40;;;20.70;99.90;;;;;;4994098;28;20226;-77
2022/06/19 01:42:20;;;;;;;2.42;1.60;;;20.70;99.90;;;;;;4994158;28;20971;-79
2022/06/19 01:44:46;;;;;;;2.03;1.55;;;20.60;99.90;;;;;;4995127;28;20180;-78
2022/06/19 01:47:14;;;;;;;3.05;1.80;;;20.60;99.90;;;;;;4993921;28;20199;-78
2022/06/19 01:49:44;;;;;;;3.83;1.83;;;20.60;99.90;;;;;;4993863;28;20176;-78
2022/06/19 01:52:10;;;;;;;3.55;1.48;;;20.60;99.90;;;;;;4995233;28;20172;-79
2022/06/19 01:54:44;;;;;;;7.22;1.85;;;20.60;99.90;;;;;;4995334;28;20215;-78
2022/06/19 01:57:11;;;;;;;4.18;1.65;;;20.60;99.90;;;;;;4992485;28;20270;-77
2022/06/19 01:59:40;;;;;;;2.15;1.40;;;20.60;99.90;;;;;;4974341;28;20624;-78
2022/06/19 02:02:09;;;;;;;3.13;1.80;;;20.60;99.90;;;;;;4983335;28;20219;-78
2022/06/19 02:04:35;;;;;;;5.88;1.67;;;20.60;99.90;;;;;;4994853;28;20180;-78
2022/06/19 02:07:05;;;;;;;2.78;1.52;;;20.50;99.90;;;;;;4994505;28;20164;-78
2022/06/19 02:09:33;;;;;;;4.22;1.60;;;20.50;99.90;;;;;;4994969;28;20191;-79
2022/06/19 02:11:58;;;;;;;4.60;1.55;;;20.40;99.90;;;;;;4993625;28;20194;-79
2022/06/19 02:14:24;;;;;;;2.28;1.40;;;20.40;99.90;;;;;;4993345;28;20697;-78
2022/06/19 02:16:51;;;;;;;4.25;1.70;;;20.40;99.90;;;;;;4994816;28;20171;-78
2022/06/19 02:19:18;;;;;;;3.22;1.50;;;20.40;99.90;;;;;;4993449;28;20691;-79
2022/06/19 02:21:51;;;;;;;2.53;1.50;;;20.30;99.90;;;;;;4994556;28;20346;-79
2022/06/19 02:24:20;;;;;;;1.75;1.27;;;20.20;99.90;;;;;;4994677;28;20160;-78
2022/06/19 02:26:49;;;;;;;2.85;1.33;;;20.10;99.90;;;;;;4994593;28;20175;-78
2022/06/19 02:29:17;;;;;;;3.60;1.80;;;20.10;99.90;;;;;;4994562;28;20179;-78
2022/06/19 02:31:54;;;;;;;4.00;1.67;;;20.00;99.90;;;;;;4993237;28;20186;-79
2022/06/19 02:34:31;;;;;;;2.17;1.35;;;20.00;99.90;;;;;;4994579;28;20187;-79
2022/06/19 02:37:02;;;;;;;2.47;1.60;;;19.90;99.90;;;;;;4993359;28;20176;-78
2022/06/19 02:39:36;;;;;;;3.78;1.60;;;19.90;99.90;;;;;;4993154;28;20179;-78
2022/06/19 02:42:02;;;;;;;5.82;1.50;;;19.90;99.90;;;;;;4994345;28;20230;-79
2022/06/19 02:44:38;;;;;;;1.83;1.40;;;19.80;99.90;;;;;;4993197;28;20176;-79
2022/06/19 02:47:05;;;;;;;3.17;1.73;;;19.70;99.90;;;;;;4993186;28;20266;-79
2022/06/19 02:49:31;;;;;;;2.60;1.30;;;19.60;99.90;;;;;;4994417;28;20176;-78
2022/06/19 02:51:57;;;;;;;2.05;1.30;;;19.50;99.90;;;;;;4993113;28;20264;-78
2022/06/19 02:54:22;;;;;;;2.00;1.40;;;19.50;99.90;;;;;;4992914;28;20246;-78
2022/06/19 02:56:48;;;;;;;2.30;1.23;;;19.40;99.90;;;;;;4993073;28;20259;-78
2022/06/19 02:59:14;;;;;;;4.15;1.45;;;19.40;99.90;;;;;;4992946;28;20187;-79
2022/06/19 03:01:40;;;;;;;3.08;1.50;;;19.30;99.90;;;;;;4994188;28;20243;-78
2022/06/19 03:04:39;;;;;;;4.60;1.50;;;19.30;99.90;;;;;;4992785;28;20195;-79
2022/06/19 03:07:04;;;;;;;2.75;1.50;;;19.30;99.90;;;;;;4976171;28;20261;-78
2022/06/19 03:09:30;;;;;;;1.85;1.30;;;19.30;99.90;;;;;;4994225;28;20618;-79
2022/06/19 03:11:56;;;;;;;1.92;1.30;;;19.30;99.90;;;;;;4994123;28;20176;-78
2022/06/19 03:14:24;;;;;;;1.60;1.20;;;19.30;99.90;;;;;;4992757;28;20209;-78
2022/06/19 03:16:50;;;;;;;2.28;1.27;;;19.30;99.90;;;;;;4994100;28;20156;-78
2022/06/19 03:19:16;;;;;;;4.80;1.48;;;19.30;99.90;;;;;;4996150;28;20186;-78
2022/06/19 03:21:42;;;;;;;2.90;1.15;;;19.30;99.90;;;;;;4997749;28;20232;-79
2022/06/19 03:24:08;;;;;;;4.63;1.15;;;19.30;99.90;;;;;;4996592;28;20175;-79
2022/06/19 03:26:34;;;;;;;3.50;1.50;;;19.30;99.90;;;;;;4996613;28;20191;-80
2022/06/19 03:28:59;;;;;;;2.20;1.35;;;19.30;99.90;;;;;;4997867;28;20179;-79
2022/06/19 03:31:27;;;;;;;2.28;0.95;;;19.30;99.90;;;;;;4997712;28;20270;-78
2022/06/19 03:33:53;;;;;;;2.40;1.23;;;19.30;99.90;;;;;;4996561;28;20203;-78
2022/06/19 03:36:20;;;;;;;3.67;1.20;;;19.30;99.90;;;;;;4997151;28;20169;-78
2022/06/19 03:38:46;;;;;;;4.70;1.20;;;19.30;99.90;;;;;;4997640;28;20626;-79
2022/06/19 03:41:13;;;;;;;2.30;1.10;;;19.20;99.90;;;;;;4997591;28;20242;-79
2022/06/19 03:43:38;;;;;;;1.77;1.27;;;19.30;99.90;;;;;;4997544;28;20255;-79
2022/06/19 03:46:12;;;;;;;2.45;1.20;;;19.20;99.90;;;;;;4996095;28;20267;-78
2022/06/19 03:48:39;;;;;;;2.05;1.08;;;19.30;99.90;;;;;;4997653;28;20523;-79
2022/06/19 03:51:05;;;;;;;1.65;1.23;;;19.30;99.90;;;;;;4997529;28;20175;-79
2022/06/19 03:53:31;;;;;;;1.90;1.10;;;19.30;99.90;;;;;;4996018;28;20219;-79
2022/06/19 03:55:58;;;;;;;1.98;1.10;;;19.20;99.90;;;;;;4996189;28;20212;-78
2022/06/19 03:58:23;;;;;;;3.25;1.33;;;19.20;99.90;;;;;;4997292;28;20531;-79
2022/06/19 04:00:49;;;;;;;1.67;1.17;;;19.30;99.90;;;;;;4985633;28;20250;-77
2022/06/19 04:03:15;;;;;;;3.47;1.58;;;19.30;99.90;;;;;;4977810;28;20191;-79
2022/06/19 04:05:41;;;;;;;3.63;1.20;;;19.30;99.90;;;;;;4977691;28;20187;-78
2022/06/19 04:08:07;;;;;;;3.03;1.35;;;19.30;99.90;;;;;;4976517;28;20255;-78
2022/06/19 04:10:32;;;;;;;5.20;1.58;;;19.30;99.90;;;;;;4976437;28;20207;-78
2022/06/19 04:12:58;;;;;;;3.67;1.40;;;19.30;99.90;;;;;;4976206;28;20188;-78
2022/06/19 04:15:24;;;;;;;2.50;1.40;;;19.40;99.90;;;;;;4977339;28;20177;-79
2022/06/19 04:17:50;;;;;;;2.17;1.30;;;19.40;99.90;;;;;;4976349;28;20191;-78
2022/06/19 04:20:15;;;;;;;3.47;1.42;;;19.40;99.90;;;;;;4976092;28;20215;-80
2022/06/19 04:22:41;;;;;;;1.80;1.40;;;19.40;99.90;;;;;;4977377;28;20224;-80
2022/06/19 04:25:13;;;;;;;2.83;1.23;;;19.30;99.90;;;;;;4976047;28;20180;-79
2022/06/19 04:27:40;;;;;;;2.65;1.20;;;19.40;99.90;;;;;;4977308;28;20165;-78
2022/06/19 04:30:07;;;;;;;3.20;1.50;;;19.40;99.90;;;;;;4976824;28;20177;-79
2022/06/19 04:32:33;;;;;;;2.67;1.40;;;19.30;99.90;;;;;;4977251;28;20623;-78
2022/06/19 04:34:58;;;;;;;5.40;1.30;;;19.30;99.90;;;;;;4977175;28;20183;-78
2022/06/19 04:37:24;;;;;;;1.65;1.10;;;19.30;99.90;;;;;;4977188;28;20252;-79
2022/06/19 04:39:50;;;;;;;6.82;1.20;;;19.40;99.90;;;;;;4977130;28;20215;-79
2022/06/19 04:42:15;;;;;;;3.53;1.10;;;19.40;99.90;;;;;;4975696;28;20243;-78
2022/06/19 04:44:41;;;;;;;3.40;1.30;;;19.30;99.90;;;;;;4976863;28;20172;-78
2022/06/19 04:47:07;;;;;;;3.50;0.98;;;19.30;99.90;;;;;;4976921;28;20177;-78
2022/06/19 04:49:32;;;;;;;2.63;1.30;;;19.40;99.90;;;;;;4977008;28;20247;-78
2022/06/19 04:51:58;;;;;;;3.03;1.10;;;19.60;99.90;;;;;;4977078;28;20172;-78
2022/06/19 04:54:24;;;;;;;1.90;1.15;;;19.70;99.90;;;;;;4976804;28;20246;-78
2022/06/19 04:56:49;;;;;;;1.58;1.10;;;19.80;99.90;;;;;;4975558;28;20222;-78
2022/06/19 04:59:15;;;;;;;2.50;1.40;;;19.80;99.90;;;;;;4975464;28;20188;-78
2022/06/19 05:01:41;;;;;;;1.88;1.10;;;19.90;99.90;;;;;;4976682;28;20215;-79
2022/06/19 05:04:10;;;;;;;2.28;1.27;;;20.00;99.90;;;;;;4975390;28;20176;-79
2022/06/19 05:06:36;;;;;;;1.48;1.10;;;20.00;99.90;;;;;;4976622;28;20314;-78
2022/06/19 05:09:02;;;;;;;2.05;1.30;;;20.10;99.90;;;;;;4976663;28;20169;-78
2022/06/19 05:11:31;;;;;;;2.95;1.65;;;20.20;99.90;;;;;;4975151;28;20180;-78
2022/06/19 05:13:57;;;;;;;4.63;1.40;;;20.20;99.90;;;;;;4976384;28;20175;-79
2022/06/19 05:16:24;;;;;;;3.70;1.60;;;20.30;99.90;;;;;;4976495;28;20185;-78
2022/06/19 05:18:53;;;;;;;1.52;1.10;;;20.30;99.90;;;;;;4975211;28;20200;-78
2022/06/19 05:21:19;;;;;;;3.33;1.60;;;20.40;99.90;;;;;;4974806;28;20271;-79
2022/06/19 05:23:47;;;;;;;3.08;1.45;;;20.40;99.90;;;;;;4974947;28;20177;-79
2022/06/19 05:26:22;;;;;;;1.30;1.10;;;20.40;99.90;;;;;;4976174;28;20189;-78
2022/06/19 05:28:50;;;;;;;3.72;1.63;;;20.40;99.90;;;;;;4975028;28;20184;-78
2022/06/19 05:31:16;;;;;;;5.40;1.55;;;20.40;99.90;;;;;;4976238;28;20518;-79
2022/06/19 05:33:43;;;;;;;2.88;1.52;;;20.30;99.90;;;;;;4976004;28;20227;-79
2022/06/19 05:36:09;;;;;;;3.05;1.80;;;20.30;99.90;;;;;;4974836;28;20215;-79
2022/06/19 05:38:35;;;;;;;2.95;1.42;;;20.40;99.90;;;;;;4974628;28;20264;-78
2022/06/19 05:41:01;;;;;;;2.72;1.55;;;20.30;99.90;;;;;;4985470;28;20290;-79
2022/06/19 05:43:29;;;;;;;3.47;1.65;;;20.30;99.90;;;;;;4995488;28;20580;-79
2022/06/19 05:46:01;;;;;;;3.15;1.98;;;20.30;99.90;;;;;;4995295;28;20279;-79
2022/06/19 05:48:27;;;;;;;2.25;1.50;;;20.40;99.90;;;;;;4994273;28;20467;-78
2022/06/19 05:51:08;;;;;;;5.90;1.95;;;20.40;99.90;;;;;;4995097;28;20182;-79
2022/06/19 05:53:38;;;;;;;3.63;2.42;;;20.40;99.90;;;;;;4993636;28;20211;-79
2022/06/19 05:56:04;;;;;;;5.78;2.58;;;20.40;99.90;;;;;;4993090;28;20278;-78
2022/06/19 05:58:30;;;;;;;3.58;2.47;;;20.50;99.90;;;;;;4993865;28;20294;-78
2022/06/19 06:00:55;;;;;;;4.95;2.53;;;20.60;99.90;;;;;;4987502;28;20613;-77
2022/06/19 06:03:23;;;;;;;2.92;1.95;;;20.60;99.90;;;;;;4983906;28;20227;-78
2022/06/19 06:05:49;;;;;;;3.83;2.13;;;20.70;99.90;;;;;;4985120;28;20176;-80
2022/06/19 06:08:16;;;;;;;5.45;2.13;;;20.80;99.90;;;;;;4985619;28;20171;-79
2022/06/19 06:10:42;;;;;;;3.03;2.10;;;20.80;99.90;;;;;;4986914;28;20187;-77
2022/06/19 06:13:08;;;;;;;4.47;2.03;;;20.80;99.90;;;;;;4994760;28;20161;-79
2022/06/19 06:15:34;;;;;;;2.92;2.25;;;20.80;99.90;;;;;;4993105;28;20511;-79
2022/06/19 06:18:02;;;;;;;6.55;2.50;;;20.80;99.90;;;;;;4986041;28;20180;-79
2022/06/19 06:20:29;;;;;;;4.18;2.25;;;20.90;99.90;;;;;;4974067;28;20245;-78
2022/06/19 06:22:55;;;;;;;3.53;2.50;;;20.90;99.90;;;;;;4975150;28;20224;-77
2022/06/19 06:25:21;;;;;;;3.95;1.95;;;21.00;99.90;;;;;;4974003;28;20626;-78
2022/06/19 06:27:47;;;;;;;3.70;2.08;;;21.00;99.90;;;;;;4975208;28;20183;-78
2022/06/19 06:30:14;;;;;;;3.55;2.53;;;21.10;99.90;;;;;;4973832;28;20184;-79
2022/06/19 06:32:45;;;;;;;3.15;2.40;;;21.10;99.90;;;;;;4973857;28;20590;-78
2022/06/19 06:35:11;;;;;;;4.22;2.60;;;21.10;99.90;;;;;;4975204;28;20164;-78
2022/06/19 06:37:37;;;;;;;3.55;2.42;;;21.20;99.90;;;;;;4973803;28;20270;-78
2022/06/19 06:40:10;;;;;;;5.93;2.65;;;21.30;99.90;;;;;;4975021;28;20171;-80
2022/06/19 06:42:36;;;;;;;3.70;2.28;;;21.40;99.90;;;;;;4986804;28;20241;-78
2022/06/19 06:45:03;;;;;;;4.32;2.17;;;21.50;99.90;;;;;;4993039;28;20179;-79
2022/06/19 06:47:29;;;;;;;6.57;2.42;;;21.60;99.90;;;;;;4994012;28;20183;-79
2022/06/19 06:49:55;;;;;;;2.63;2.28;;;21.60;99.90;;;;;;4993105;28;20187;-79
2022/06/19 06:52:20;;;;;;;4.18;2.33;;;21.60;99.90;;;;;;4994060;28;20176;-80
2022/06/19 06:54:46;;;;;;;3.38;2.20;;;21.80;99.90;;;;;;4999281;28;20175;-78
2022/06/19 06:57:12;;;;;;;7.65;2.55;;;21.90;99.90;;;;;;5000737;28;20175;-79
2022/06/19 06:59:37;;;;;;;7.75;2.78;;;22.10;99.90;;;;;;4999597;28;20258;-79
2022/06/19 07:02:04;;;;;;;3.67;2.30;;;22.30;99.90;;;;;;4999175;28;20566;-78
2022/06/19 07:04:30;;;;;;;2.92;1.70;;;22.40;99.90;;;;;;4999381;28;20686;-78
2022/06/19 07:06:56;;;;;;;3.47;1.80;;;22.50;99.90;;;;;;4999224;28;20262;-79
2022/06/19 07:09:22;;;;;;;3.60;1.67;;;22.60;99.90;;;;;;5000387;28;20172;-80
2022/06/19 07:11:48;;;;;;;3.63;1.73;;;22.70;99.50;;;;;;5000535;28;20611;-80
2022/06/19 07:14:16;;;;;;;4.18;1.60;;;22.70;99.30;;;;;;5000464;28;20490;-80
2022/06/19 07:16:42;;;;;;;5.00;1.60;;;22.70;98.70;;;;;;5000329;28;20213;-80
2022/06/19 07:19:08;;;;;;;4.57;1.80;;;22.60;98.40;;;;;;4997629;28;20715;-79
2022/06/19 07:21:35;;;;;;;4.00;1.42;;;22.60;98.50;;;;;;4988611;28;20231;-79
2022/06/19 07:24:01;;;;;;;5.70;1.73;;;22.50;97.90;;;;;;4991272;28;20175;-78
2022/06/19 07:26:28;;;;;;;4.22;1.58;;;22.60;98.20;;;;;;4988511;28;20200;-78
2022/06/19 07:28:55;;;;;;;5.22;1.65;;;22.70;98.30;;;;;;4993460;28;20183;-80
2022/06/19 07:31:21;;;;;;;10.02;1.50;;;22.80;98.10;;;;;;4991683;28;20182;-80
2022/06/19 07:33:47;;;;;;;5.60;1.73;;;22.80;96.80;;;;;;4979476;28;20169;-79
2022/06/19 07:36:19;;;;;;;6.65;1.55;;;22.90;97.50;;;;;;4978124;28;20211;-80
2022/06/19 07:38:44;;;;;;;6.70;1.75;;;23.00;96.60;;;;;;4979695;28;20212;-80
2022/06/19 07:41:11;;;;;;;4.88;1.60;;;22.90;96.50;;;;;;4980318;28;20749;-80
2022/06/19 07:43:36;;;;;;;6.85;1.88;;;23.00;96.60;;;;;;4979186;28;20248;-80
2022/06/19 07:46:03;;;;;;;6.55;1.88;;;23.00;96.30;;;;;;4979706;28;20275;-79
2022/06/19 07:51:13;;;;;;;4.93;1.70;;;23.10;96.30;;;;;;4982874;28;20566;-81
2022/06/19 07:53:39;;;;;;;7.80;1.80;;;23.30;96.40;;;;;;4998978;28;20180;-80
2022/06/19 07:56:04;;;;;;;4.60;1.70;;;23.40;95.60;;;;;;4999340;28;20605;-81
2022/06/19 07:58:30;;;;;;;4.47;1.60;;;23.40;95.70;;;;;;4999982;28;20184;-80
2022/06/19 08:00:56;;;;;;;4.03;1.50;;;23.50;95.60;;;;;;4998891;28;20642;-80
2022/06/19 08:03:22;;;;;;;3.85;1.77;;;23.60;96.40;;;;;;4998865;28;20514;-80
2022/06/19 08:05:47;;;;;;;4.85;1.63;;;23.70;95.10;;;;;;4995997;28;20218;-79
2022/06/19 08:08:24;;;;;;;5.97;1.80;;;23.70;95.30;;;;;;4995835;28;20188;-79
2022/06/19 08:10:52;;;;;;;10.68;1.73;;;23.70;95.40;;;;;;4994031;28;20603;-79
2022/06/19 08:13:20;;;;;;;5.75;2.13;;;23.80;94.80;;;;;;4993000;28;20526;-80
2022/06/19 08:15:56;;;;;;;6.65;1.92;;;23.90;94.50;;;;;;4995630;28;20525;-80
2022/06/19 08:18:22;;;;;;;5.32;1.83;;;24.00;94.80;;;;;;4995796;28;20295;-80
2022/06/19 08:20:48;;;;;;;6.75;2.00;;;24.10;94.70;;;;;;4995239;28;20230;-79
2022/06/19 08:23:14;;;;;;;5.05;2.15;;;24.10;94.50;;;;;;4996840;28;20183;-79
2022/06/19 08:25:41;;;;;;;6.90;2.17;;;24.20;94.60;;;;;;4995472;28;20176;-80
2022/06/19 08:28:07;;;;;;;5.28;1.90;;;24.20;94.40;;;;;;4996056;28;20176;-81
2022/06/19 08:30:40;;;;;;;5.93;2.13;;;24.20;93.90;;;;;;4996806;28;20165;-80
2022/06/19 08:33:07;;;;;;;5.13;1.90;;;24.30;93.70;;;;;;4996813;28;20168;-80
2022/06/19 08:35:51;;;;;;;6.60;2.55;;;24.30;93.70;;;;;;4996424;28;20172;-80
2022/06/19 08:38:25;;;;;;;6.05;2.08;;;24.30;94.20;;;;;;4995420;28;20184;-80
2022/06/19 08:41:20;;;;;;;8.45;2.10;;;24.40;93.80;;;;;;4995188;28;20678;-80
2022/06/19 08:44:11;;;;;;;5.35;2.28;;;24.50;93.80;;;;;;4995935;28;20553;-80
2022/06/19 08:47:12;;;;;;;5.75;2.13;;;24.40;93.70;;;;;;4996412;28;20164;-80
2022/06/19 08:50:00;;;;;;;7.20;2.50;;;24.70;93.50;;;;;;4995173;28;20226;-80
2022/06/19 08:52:38;;;;;;;10.40;2.50;;;24.70;94.30;;;;;;4994881;28;20526;-81
2022/06/19 08:55:28;;;;;;;10.20;2.42;;;24.70;93.50;;;;;;4995736;28;20525;-80
2022/06/19 08:57:59;;;;;;;6.03;2.63;;;24.70;93.50;;;;;;4996248;28;20283;-80
2022/06/19 09:00:36;;;;;;;7.13;2.25;;;24.70;93.40;;;;;;4996109;28;20638;-80
2022/06/19 09:05:36;;;;;;;8.15;2.20;;;24.80;93.50;;;;;;4996246;28;20174;-81
2022/06/19 09:06:25;;;;;;;11.15;2.22;;;24.80;93.30;;;;;;4996022;28;20172;-80
2022/06/19 09:09:18;;;;;;;5.35;1.98;;;25.20;93.90;;;;;;4996069;28;20214;-80
2022/06/19 09:12:10;;;;;;;9.95;2.83;;;25.30;93.10;;;;;;4996085;28;20183;-81
2022/06/19 09:14:56;;;;;;;7.22;2.65;;;25.20;92.10;;;;;;4995889;28;20168;-80
2022/06/19 09:17:29;;;;;;;7.97;2.20;;;25.20;92.80;;;;;;4995355;28;20172;-81
2022/06/19 09:20:10;;;;;;;6.75;2.45;;;25.20;92.40;;;;;;4996215;28;20172;-80
2022/06/19 09:22:59;;;;;;;10.20;2.20;;;25.30;93.90;;;;;;4994317;28;20227;-80
2022/06/19 09:25:48;;;;;;;8.13;2.40;;;25.50;93.50;;;;;;4994456;28;20179;-81
2022/06/19 09:28:34;;;;;;;6.43;2.60;;;25.60;92.00;;;;;;4994373;28;20268;-81
2022/06/19 09:31:36;;;;;;;7.25;2.17;;;25.60;92.60;;;;;;4994374;28;20271;-80
2022/06/19 09:34:11;;;;;;;8.45;2.50;;;25.60;92.60;;;;;;4995479;28;20521;-81
2022/06/19 09:36:51;;;;;;;6.65;2.30;;;25.70;91.70;;;;;;4994376;28;20180;-80
2022/06/19 09:39:17;;;;;;;5.75;2.03;;;25.60;91.80;;;;;;4995577;28;20167;-82
2022/06/19 09:41:48;;;;;;;8.15;2.20;;;25.60;91.40;;;;;;4994187;28;20211;-80
2022/06/19 09:44:28;;;;;;;8.88;2.67;;;25.50;91.90;;;;;;4994050;28;20211;-81
2022/06/19 09:47:22;;;;;;;8.70;2.50;;;25.50;91.60;;;;;;4995387;28;20630;-81
2022/06/19 09:49:59;;;;;;;8.77;2.30;;;25.50;92.30;;;;;;4986337;28;20188;-82
2022/06/19 09:52:36;;;;;;;8.52;2.40;;;25.70;91.30;;;;;;4993889;28;20202;-81
2022/06/19 09:55:16;;;;;;;10.20;2.72;;;25.70;91.20;;;;;;4993691;28;20186;-81
2022/06/19 09:57:51;;;;;;;7.95;2.72;;;25.90;91.20;;;;;;4994769;28;20167;-82
2022/06/19 10:00:23;;;;;;;7.60;2.40;;;26.10;90.60;;;;;;4993479;28;20176;-80
2022/06/19 10:03:04;;;;;;;7.22;2.65;;;26.00;90.90;;;;;;4993627;28;20187;-82
2022/06/19 10:05:43;;;;;;;8.00;2.10;;;26.00;90.80;;;;;;4993886;28;20242;-79
2022/06/19 10:08:40;;;;;;;7.57;2.03;;;26.00;91.40;;;;;;4994709;28;20164;-82
2022/06/19 10:11:12;;;;;;;8.93;2.35;;;26.10;91.50;;;;;;4994992;28;20230;-81
2022/06/19 10:14:02;;;;;;;7.18;2.33;;;26.20;91.50;;;;;;4994809;28;20176;-80
2022/06/19 10:16:48;;;;;;;8.77;2.75;;;26.40;91.60;;;;;;4993579;28;20267;-80
2022/06/19 10:19:22;;;;;;;7.80;2.65;;;26.60;91.90;;;;;;4993607;28;20176;-80
2022/06/19 10:22:14;;;;;;;6.85;2.50;;;26.80;90.70;;;;;;4993178;28;20258;-80
2022/06/19 10:25:02;;;;;;;8.95;3.08;;;26.70;91.00;;;;;;4993453;28;20186;-81
2022/06/19 10:27:40;;;;;;;8.00;2.70;;;26.90;91.20;;;;;;4994297;28;20176;-81
2022/06/19 10:30:12;;;;;;;7.28;2.50;;;27.00;90.80;;;;;;4993190;28;20190;-81
2022/06/19 10:33:06;;;;;;;8.98;2.60;;;26.90;90.10;;;;;;4994257;28;20642;-80
2022/06/19 10:35:43;;;;;;;7.47;2.65;;;26.80;90.90;;;;;;4993197;28;20180;-81
2022/06/19 10:38:27;;;;;;;7.88;2.53;;;26.80;90.50;;;;;;4993326;28;20176;-81
2022/06/19 10:41:07;;;;;;;12.18;2.70;;;26.60;90.60;;;;;;4994357;28;20654;-81
2022/06/19 10:43:45;;;;;;;9.70;3.00;;;26.70;92.00;;;;;;4993188;28;20203;-80
2022/06/19 10:46:15;;;;;;;10.75;2.75;;;26.90;90.20;;;;;;4994475;28;20175;-80
2022/06/19 10:48:49;;;;;;;11.38;2.80;;;26.90;90.10;;;;;;4994445;28;20176;-81
2022/06/19 10:51:24;;;;;;;10.38;2.60;;;26.90;90.70;;;;;;4994303;28;20504;-79
2022/06/19 10:54:16;;;;;;;9.43;3.00;;;26.70;90.10;;;;;;4990945;28;20278;-79
2022/06/19 10:57:03;;;;;;;11.20;3.15;;;26.90;90.30;;;;;;4978906;28;20184;-80
2022/06/19 10:59:30;;;;;;;10.52;3.03;;;26.90;90.40;;;;;;4986478;28;20180;-80
2022/06/19 11:05:00;;;;;;;8.93;2.88;;;26.90;90.60;;;;;;4993473;28;20649;-79
2022/06/19 11:07:26;;;;;;;11.27;2.97;;;27.00;90.00;;;;;;4992061;28;20187;-79
2022/06/19 11:09:58;;;;;;;7.90;2.83;;;26.60;89.90;;;;;;4989772;28;20216;-79
2022/06/19 11:12:35;;;;;;;12.93;2.80;;;26.50;90.40;;;;;;4993028;28;20184;-81
2022/06/19 11:15:07;;;;;;;12.73;3.08;;;26.60;89.90;;;;;;4994249;28;20203;-81
2022/06/19 11:17:41;;;;;;;7.40;2.80;;;26.70;89.90;;;;;;4994310;28;20165;-81
2022/06/19 11:20:16;;;;;;;12.45;2.78;;;26.90;88.40;;;;;;4992806;28;20179;-81
2022/06/19 11:22:45;;;;;;;11.85;2.63;;;26.90;88.50;;;;;;4992564;28;20239;-81
2022/06/19 11:25:20;;;;;;;10.45;2.60;;;26.90;88.20;;;;;;4992821;28;20176;-81
2022/06/19 11:28:12;;;;;;;9.77;2.35;;;27.00;89.00;;;;;;4992876;28;20187;-81
2022/06/19 11:30:45;;;;;;;10.25;2.78;;;26.90;89.90;;;;;;4993931;28;20164;-81
2022/06/19 11:33:17;;;;;;;8.90;2.35;;;27.00;88.90;;;;;;4974642;28;20231;-81
2022/06/19 11:35:49;;;;;;;8.98;2.70;;;27.20;88.40;;;;;;4973289;28;20275;-82
2022/06/19 11:38:31;;;;;;;5.60;2.28;;;27.30;86.10;;;;;;4974623;28;20169;-82
2022/06/19 11:40:56;;;;;;;6.00;2.65;;;27.20;86.20;;;;;;4977366;28;20239;-80
2022/06/19 11:43:27;;;;;;;6.63;2.50;;;27.20;87.40;;;;;;4978124;28;20180;-80
2022/06/19 11:46:25;;;;;;;14.93;3.10;;;27.30;89.30;;;;;;4978216;28;20223;-80
2022/06/19 11:48:51;;;;;;;6.85;2.50;;;27.50;86.90;;;;;;4977768;28;20180;-81
2022/06/19 11:51:28;;;;;;;11.18;2.78;;;27.50;87.80;;;;;;4976467;28;20185;-80
2022/06/19 11:53:58;;;;;;;7.70;2.60;;;27.60;86.10;;;;;;4977884;28;20240;-81
2022/06/19 11:56:34;;;;;;;5.65;2.63;;;27.40;84.60;;;;;;4992809;28;20275;-80
2022/06/19 11:59:25;;;;;;;9.45;2.88;;;27.40;86.40;;;;;;4976639;28;20566;-80
2022/06/19 12:01:51;;;;;;;7.55;2.72;;;27.30;88.20;;;;;;4970489;28;20306;-79
2022/06/19 12:04:34;;;;;;;7.60;2.72;;;27.40;86.30;;;;;;4976423;28;20260;-80
2022/06/19 12:07:05;;;;;;;8.27;3.20;;;27.40;85.70;;;;;;4976393;28;20525;-81
2022/06/19 12:09:54;;;;;;;7.15;2.42;;;27.20;85.20;;;;;;4977728;28;20169;-81
2022/06/19 12:12:21;;;;;;;7.03;2.38;;;26.90;86.40;;;;;;4984649;28;20184;-80
2022/06/19 12:14:46;;;;;;;10.23;2.58;;;26.70;87.10;;;;;;4977989;28;20686;-81
2022/06/19 12:17:20;;;;;;;8.73;2.60;;;26.60;88.40;;;;;;4976608;28;20647;-82
2022/06/19 12:20:00;;;;;;;11.57;2.88;;;26.60;87.40;;;;;;4981247;28;20188;-80
2022/06/19 12:22:49;;;;;;;6.57;2.47;;;26.60;87.90;;;;;;4995018;28;20282;-80
2022/06/19 12:25:35;;;;;;;10.10;2.97;;;26.60;89.30;;;;;;4994680;28;20504;-81
2022/06/19 12:28:09;;;;;;;9.73;2.88;;;26.60;88.70;;;;;;4994577;28;20558;-81
2022/06/19 12:30:40;;;;;;;9.63;3.15;;;26.40;88.40;;;;;;4997078;28;20237;-80
2022/06/19 12:33:15;;;;;;;6.93;2.85;;;26.40;89.40;;;;;;4995421;28;20179;-79
2022/06/19 12:35:46;;;;;;;6.15;2.08;;;26.30;89.10;;;;;;4996705;28;20495;-80
2022/06/19 12:38:14;;;;;;;11.05;2.78;;;26.20;90.10;;;;;;4996745;28;20538;-80
2022/06/19 12:41:04;;;;;;;10.15;3.10;;;26.40;89.70;;;;;;4995302;28;20558;-80
2022/06/19 12:43:51;;;;;;;9.80;2.97;;;26.40;88.50;;;;;;4996696;28;20500;-80
2022/06/19 12:46:54;;;;;;;11.07;2.65;;;26.50;88.90;;;;;;4996658;28;20247;-79
2022/06/19 12:49:35;;;;;;;8.68;2.63;;;26.70;89.00;;;;;;4986167;28;20553;-80
2022/06/19 12:52:18;;;;;;;10.32;2.83;;;26.80;88.70;;;;;;4986359;28;20180;-79
2022/06/19 12:55:21;;;;;;;9.25;2.85;;;26.90;88.60;;;;;;4977539;28;20194;-79
2022/06/19 12:58:10;;;;;;;7.43;2.60;;;26.80;87.10;;;;;;4987155;28;20168;-80
2022/06/19 13:00:44;;;;;;;6.47;2.78;;;26.60;86.60;;;;;;4985272;28;20204;-78
2022/06/19 13:03:12;;;;;;;5.50;2.47;;;26.40;88.40;;;;;;4986101;28;20172;-79
2022/06/19 13:06:05;;;;;;;7.28;2.83;;;26.30;89.90;;;;;;4984414;28;20172;-79
2022/06/19 13:08:45;;;;;;;12.30;2.88;;;26.20;88.80;;;;;;4987343;28;20183;-78
2022/06/19 13:11:21;;;;;;;8.73;2.65;;;26.10;88.50;;;;;;4983725;28;20219;-79
2022/06/19 13:13:53;;;;;;;7.32;2.80;;;26.10;90.50;;;;;;4984053;28;20172;-79
2022/06/19 13:16:42;;;;;;;6.35;2.70;;;26.00;89.70;;;;;;4976538;28;20168;-80